Terminal Aerodrome Forecast
Issued by NWS

Home | Current Version | Previous Version | Text Only | Print | Product List | Glossary On
Versions: 1 2 3 4 5 6 7 8 9 10 11 12
000
FTUS42 KTBW 021735
TAFRSW
TAF
KRSW 021735Z 0218/0318 22008KT P6SM VCTS BKN045CB BKN150
      TEMPO 0220/0224 VRB15G25KT 3SM TSRA BKN030CB
     FM030100 VRB05KT P6SM VCTS BKN050CB BKN200
     FM030300 VRB04KT P6SM FEW030 BKN250
     FM031500 14006KT P6SM SCT030 SCT150=

USA.gov is the U.S. government's official web portal to all federal, state and local government web resources and services.